createdAt,value
2022-11-16T00:01:24.296Z,97982.28
2022-11-16T00:03:52.538Z,97993.97
2022-11-16T00:06:20.061Z,97989.72
2022-11-16T00:09:09.883Z,97998.44
2022-11-16T00:11:38.279Z,97999.25
2022-11-16T00:14:06.103Z,98005.81
2022-11-16T00:16:33.176Z,98013.47
2022-11-16T00:19:03.368Z,98018.25
2022-11-16T00:21:31.191Z,98018.25
2022-11-16T00:23:58.047Z,98020.09
2022-11-16T00:26:24.952Z,98014.81
2022-11-16T00:28:54.894Z,98019.03
2022-11-16T00:31:22.224Z,98026.69
2022-11-16T00:33:49.613Z,98017.47
2022-11-16T00:36:16.617Z,98018.53
2022-11-16T00:38:43.873Z,98020.41
2022-11-16T00:41:10.508Z,98023.06
2022-11-16T00:43:37.711Z,98022.53
2022-11-16T00:46:04.757Z,98019.91
2022-11-16T00:48:31.687Z,98020.97
2022-11-16T00:50:58.478Z,98022.06
2022-11-16T00:53:25.085Z,98018.59
2022-11-16T00:55:51.716Z,98005.69
2022-11-16T00:58:18.276Z,98009.41
2022-11-16T01:00:44.877Z,98006.75
2022-11-16T01:03:11.832Z,98007.53
2022-11-16T01:05:38.835Z,98012.31
2022-11-16T01:08:06.231Z,98014.50
2022-11-16T01:10:32.860Z,98016.34
2022-11-16T01:12:59.612Z,98019.56
2022-11-16T01:15:27.648Z,98009.00
2022-11-16T01:17:56.950Z,98017.22
2022-11-16T01:20:27.537Z,98021.69
2022-11-16T01:22:54.822Z,98015.63
2022-11-16T01:25:21.592Z,98018.56
2022-11-16T01:27:48.309Z,98017.00
2022-11-16T01:30:16.557Z,98022.88
2022-11-16T01:32:43.489Z,98017.16
2022-11-16T01:35:14.463Z,98023.59
2022-11-16T01:37:40.974Z,98020.25
2022-11-16T01:40:08.126Z,98011.59
2022-11-16T01:42:34.778Z,98011.97
2022-11-16T01:45:16.844Z,98017.81
2022-11-16T01:47:43.799Z,98009.97
2022-11-16T01:50:14.631Z,98014.53
2022-11-16T01:52:52.551Z,98014.59
2022-11-16T01:55:19.686Z,98011.25
2022-11-16T01:57:48.028Z,98007.59
2022-11-16T02:00:15.613Z,98006.03
2022-11-16T02:02:42.514Z,98011.09
2022-11-16T02:05:11.689Z,98009.59
2022-11-16T02:08:11.023Z,98013.00
2022-11-16T02:10:37.559Z,98005.69
2022-11-16T02:13:27.273Z,98006.25
2022-11-16T02:16:32.126Z,98012.31
2022-11-16T02:19:33.754Z,98010.97
2022-11-16T02:22:38.485Z,98018.06
2022-11-16T02:25:11.148Z,98015.44
2022-11-16T02:27:52.219Z,98012.00
2022-11-16T02:30:21.137Z,98016.44
2022-11-16T02:32:59.057Z,98009.88
2022-11-16T02:35:33.820Z,98008.81
2022-11-16T02:38:07.948Z,98012.78
2022-11-16T02:40:37.697Z,98009.16
2022-11-16T02:43:09.821Z,98015.56
2022-11-16T02:45:41.482Z,98019.56
2022-11-16T02:48:17.604Z,98017.00
2022-11-16T02:50:45.164Z,98010.41
2022-11-16T02:53:11.669Z,98007.53
2022-11-16T02:55:38.285Z,98008.06
2022-11-16T02:58:11.112Z,98012.59
2022-11-16T03:00:52.564Z,98003.13
2022-11-16T03:03:37.665Z,98008.94
2022-11-16T03:06:04.332Z,98010.53
2022-11-16T03:08:36.285Z,98010.81
2022-11-16T03:11:27.686Z,98011.09
2022-11-16T03:14:17.787Z,98016.94
2022-11-16T03:16:50.876Z,98006.44
2022-11-16T03:19:23.774Z,98010.44
2022-11-16T03:21:57.904Z,98003.31
2022-11-16T03:24:25.101Z,98002.31
2022-11-16T03:27:11.484Z,98008.16
2022-11-16T03:29:49.228Z,98013.50
2022-11-16T03:32:21.935Z,98003.56
2022-11-16T03:35:01.765Z,98013.09
2022-11-16T03:37:30.157Z,98013.63
2022-11-16T03:39:58.820Z,98001.53
2022-11-16T03:42:27.524Z,98004.72
2022-11-16T03:44:55.540Z,98002.06
2022-11-16T03:47:22.036Z,98003.16
2022-11-16T03:49:48.572Z,98010.00
2022-11-16T03:52:17.364Z,98010.00
2022-11-16T03:54:43.871Z,98004.72
2022-11-16T03:57:15.555Z,98009.22
2022-11-16T03:59:43.417Z,98001.00
2022-11-16T04:02:10.719Z,97993.88
2022-11-16T04:04:56.207Z,97997.81
2022-11-16T04:07:40.960Z,98006.81
2022-11-16T04:10:26.426Z,97999.97
2022-11-16T04:13:11.780Z,97996.19
2022-11-16T04:15:56.680Z,97990.41
2022-11-16T04:18:41.597Z,97990.13
2022-11-16T04:21:37.577Z,97989.34
2022-11-16T04:24:13.452Z,97989.06
2022-11-16T04:27:02.750Z,98001.16
2022-11-16T04:29:29.787Z,98000.38
2022-11-16T04:32:15.445Z,97987.97
2022-11-16T04:35:00.314Z,97994.06
2022-11-16T04:37:45.239Z,97988.22
2022-11-16T04:40:12.028Z,97990.06
2022-11-16T04:42:38.542Z,97985.56
2022-11-16T04:45:24.075Z,97994.00
2022-11-16T04:47:51.292Z,97992.44
2022-11-16T04:50:19.080Z,97999.28
2022-11-16T04:52:46.015Z,98001.63
2022-11-16T04:55:12.992Z,98002.94
2022-11-16T04:57:39.544Z,97997.13
2022-11-16T05:00:07.424Z,97992.94
2022-11-16T05:02:34.165Z,97992.94
2022-11-16T05:05:00.673Z,97994.78
2022-11-16T05:07:27.354Z,97992.44
2022-11-16T05:09:53.901Z,97988.50
2022-11-16T05:12:25.904Z,97985.94
2022-11-16T05:14:53.483Z,97986.97
2022-11-16T05:17:19.986Z,97984.13
2022-11-16T05:20:05.010Z,97978.84
2022-11-16T05:22:32.078Z,97985.72
2022-11-16T05:24:58.956Z,97979.72
2022-11-16T05:27:27.024Z,97973.38
2022-11-16T05:29:54.972Z,97959.97
2022-11-16T05:32:23.016Z,97962.19
2022-11-16T05:34:49.794Z,97977.22
2022-11-16T05:37:17.012Z,97974.06
2022-11-16T05:39:43.586Z,97976.97
2022-11-16T05:42:10.392Z,97971.19
2022-11-16T05:44:37.016Z,97974.38
2022-11-16T05:47:03.713Z,97972.31
2022-11-16T05:49:30.233Z,97971.00
2022-11-16T05:51:56.729Z,97976.84
2022-11-16T05:54:25.929Z,97979.78
2022-11-16T05:56:54.168Z,97986.66
2022-11-16T05:59:22.588Z,97984.03
2022-11-16T06:01:49.526Z,97991.94
2022-11-16T06:04:16.299Z,97992.53
2022-11-16T06:06:43.153Z,97987.50
2022-11-16T06:09:12.095Z,97980.44
2022-11-16T06:11:38.840Z,97984.91
2022-11-16T06:14:06.031Z,97991.53
2022-11-16T06:16:32.673Z,97985.75
2022-11-16T06:18:59.790Z,97989.72
2022-11-16T06:21:26.381Z,97988.16
2022-11-16T06:23:52.844Z,97987.91
2022-11-16T06:26:19.349Z,97992.16
2022-11-16T06:28:45.892Z,97990.84
2022-11-16T06:31:12.430Z,97991.91
2022-11-16T06:33:38.917Z,97998.50
2022-11-16T06:36:05.713Z,97992.75
2022-11-16T06:38:32.629Z,97998.56
2022-11-16T06:40:59.749Z,98001.75
2022-11-16T06:43:26.659Z,98008.06
2022-11-16T06:45:55.963Z,97999.66
2022-11-16T06:48:22.690Z,97999.66
2022-11-16T06:50:50.768Z,98008.34
2022-11-16T06:53:17.840Z,98009.69
2022-11-16T06:55:44.547Z,98010.47
2022-11-16T06:58:11.095Z,98008.13
2022-11-16T07:00:37.612Z,98006.25
2022-11-16T07:03:04.285Z,98003.91
2022-11-16T07:05:31.628Z,98017.63
2022-11-16T07:07:58.503Z,98017.88
2022-11-16T07:10:25.387Z,98021.34
2022-11-16T07:12:51.941Z,98005.03
2022-11-16T07:15:19.388Z,98004.78
2022-11-16T07:17:46.068Z,97999.56
2022-11-16T07:20:12.761Z,98012.72
2022-11-16T07:22:39.243Z,98006.41
2022-11-16T07:25:06.415Z,98009.34
2022-11-16T07:27:32.872Z,98021.19
2022-11-16T07:30:00.749Z,98018.31
2022-11-16T07:32:28.876Z,98019.09
2022-11-16T07:34:58.027Z,98024.38
2022-11-16T07:37:25.640Z,98022.53
2022-11-16T07:39:52.152Z,98023.81
2022-11-16T07:42:18.633Z,98030.38
2022-11-16T07:44:45.230Z,98028.00
2022-11-16T07:47:11.751Z,98028.53
2022-11-16T07:49:38.295Z,98021.91
2022-11-16T07:52:04.830Z,98020.31
2022-11-16T07:54:33.602Z,98034.50
2022-11-16T07:57:00.137Z,98035.28
2022-11-16T07:59:27.549Z,98021.56
2022-11-16T08:01:55.794Z,98019.72
2022-11-16T08:04:22.400Z,98024.75
2022-11-16T08:06:51.788Z,98018.91
2022-11-16T08:09:18.525Z,98028.91
2022-11-16T08:11:45.376Z,98018.91
2022-11-16T08:14:12.663Z,98021.78
2022-11-16T08:16:39.182Z,98037.28
2022-11-16T08:19:05.769Z,98029.91
2022-11-16T08:21:32.242Z,98020.94
2022-11-16T08:23:59.158Z,98029.34
2022-11-16T08:26:27.090Z,98028.53
2022-11-16T08:28:54.140Z,98027.97
2022-11-16T08:31:24.036Z,98031.16
2022-11-16T08:33:51.867Z,98037.19
2022-11-16T08:36:18.927Z,98032.16
2022-11-16T08:38:46.431Z,98035.03
2022-11-16T08:41:13.602Z,98033.69
2022-11-16T08:43:40.806Z,98027.09
2022-11-16T08:46:08.899Z,98028.66
2022-11-16T08:48:36.472Z,98026.25
2022-11-16T08:51:20.132Z,98027.56
2022-11-16T08:53:49.089Z,98027.03
2022-11-16T08:56:17.948Z,98015.91
2022-11-16T08:58:47.075Z,98025.13
2022-11-16T09:01:19.352Z,98026.69
2022-11-16T09:03:46.531Z,98025.84
2022-11-16T09:06:14.166Z,98027.16
2022-11-16T09:08:43.095Z,98031.09
2022-11-16T09:11:13.663Z,98028.97
2022-11-16T09:13:40.499Z,98031.81
2022-11-16T09:16:07.465Z,98032.84
2022-11-16T09:18:35.407Z,98038.34
2022-11-16T09:21:02.091Z,98029.59
2022-11-16T09:23:28.899Z,98037.19
2022-11-16T09:25:55.448Z,98037.44
2022-11-16T09:28:22.448Z,98044.00
2022-11-16T09:30:51.165Z,98040.00
2022-11-16T09:33:17.830Z,98039.47
2022-11-16T09:35:44.649Z,98038.09
2022-11-16T09:38:14.851Z,98038.09
2022-11-16T09:40:47.427Z,98036.78
2022-11-16T09:43:58.260Z,98038.84
2022-11-16T09:46:29.214Z,98031.66
2022-11-16T09:48:59.970Z,98033.97
2022-11-16T09:51:29.765Z,98028.16
2022-11-16T09:54:06.636Z,98029.97
2022-11-16T09:56:37.345Z,98026.50
2022-11-16T09:59:15.064Z,98024.31
2022-11-16T10:01:58.569Z,98033.22
2022-11-16T10:05:03.139Z,98027.88
2022-11-16T10:07:43.529Z,98022.34
2022-11-16T10:10:18.237Z,98016.75
2022-11-16T10:12:52.093Z,98016.69
2022-11-16T10:15:23.636Z,98017.47
2022-11-16T10:18:47.128Z,98015.34
2022-11-16T10:21:19.459Z,98014.00
2022-11-16T10:24:04.044Z,98010.22
2022-11-16T10:26:45.138Z,98013.88
2022-11-16T10:29:22.924Z,98020.44
2022-11-16T10:32:20.821Z,98025.34
2022-11-16T10:34:52.245Z,98026.38
2022-11-16T10:37:19.621Z,98015.53
2022-11-16T10:39:49.685Z,98015.22
2022-11-16T10:42:39.301Z,98014.38
2022-11-16T10:45:21.685Z,98014.09
2022-11-16T10:47:55.628Z,98019.63
2022-11-16T10:50:47.901Z,98018.75
2022-11-16T10:53:25.230Z,98010.25
2022-11-16T10:56:19.666Z,98003.81
2022-11-16T10:58:53.444Z,97999.53
2022-11-16T11:01:50.073Z,97991.50
2022-11-16T11:04:27.493Z,97993.03
2022-11-16T11:07:24.623Z,97991.66
2022-11-16T11:09:54.893Z,97985.50
2022-11-16T11:12:38.683Z,97998.44
2022-11-16T11:15:11.184Z,97994.13
2022-11-16T11:17:44.787Z,97995.13
2022-11-16T11:20:17.651Z,97993.22
2022-11-16T11:22:55.238Z,97993.41
2022-11-16T11:25:41.250Z,97989.13
2022-11-16T11:28:28.600Z,97984.53
2022-11-16T11:31:00.277Z,97977.28
2022-11-16T11:33:30.157Z,97969.75
2022-11-16T11:36:21.197Z,97962.75
2022-11-16T11:39:00.202Z,97965.28
2022-11-16T11:41:32.808Z,97975.50
2022-11-16T11:44:14.811Z,97974.03
2022-11-16T11:47:35.296Z,97968.44
2022-11-16T11:49:40.231Z,97981.56
2022-11-16T11:52:17.314Z,97978.34
2022-11-16T11:54:47.784Z,97986.78
2022-11-16T11:57:22.077Z,97991.03
2022-11-16T11:59:52.427Z,97980.44
2022-11-16T12:02:30.864Z,97979.34
2022-11-16T12:05:12.630Z,97976.41
2022-11-16T12:07:56.298Z,97972.97
2022-11-16T12:10:41.907Z,97977.22
2022-11-16T12:13:20.509Z,97974.56
2022-11-16T12:16:14.032Z,97968.97
2022-11-16T12:19:01.588Z,97965.53
2022-11-16T12:22:02.231Z,97966.00
2022-11-16T12:24:37.765Z,97953.56
2022-11-16T12:27:07.152Z,97959.34
2022-11-16T12:29:50.625Z,97949.53
2022-11-16T12:32:34.954Z,97938.97
2022-11-16T12:35:04.448Z,97937.28
2022-11-16T12:37:49.344Z,97942.28
2022-11-16T12:40:34.793Z,97936.91
2022-11-16T12:43:56.116Z,97937.56
2022-11-16T12:46:37.545Z,97916.28
2022-11-16T12:49:45.232Z,97919.31
2022-11-16T12:52:36.262Z,97915.47
2022-11-16T12:55:26.942Z,97914.28
2022-11-16T12:58:00.011Z,97908.88
2022-11-16T13:00:28.778Z,97906.44
2022-11-16T13:03:00.645Z,97896.81
2022-11-16T13:05:42.040Z,97898.81
2022-11-16T13:08:21.245Z,97892.47
2022-11-16T13:10:50.742Z,97891.06
2022-11-16T13:13:36.417Z,97885.94
2022-11-16T13:16:17.509Z,97880.53
2022-11-16T13:18:44.526Z,97882.00
2022-11-16T13:21:19.863Z,97873.91
2022-11-16T13:24:20.305Z,97871.63
2022-11-16T13:27:11.339Z,97875.28
2022-11-16T13:29:45.704Z,97871.50
2022-11-16T13:32:19.792Z,97864.06
2022-11-16T13:34:47.123Z,97862.38
2022-11-16T13:37:38.711Z,97867.06
2022-11-16T13:40:05.183Z,97870.00
2022-11-16T13:42:34.279Z,97868.78
2022-11-16T13:45:21.648Z,97874.19
2022-11-16T13:47:51.687Z,97879.31
2022-11-16T13:50:21.682Z,97869.63
2022-11-16T13:55:48.122Z,97848.53
2022-11-16T13:58:21.792Z,97846.19
2022-11-16T14:01:04.466Z,97835.09
2022-11-16T14:03:38.668Z,97829.47
2022-11-16T14:06:26.398Z,97820.44
2022-11-16T14:08:55.004Z,97825.44
2022-11-16T14:11:36.715Z,97806.09
2022-11-16T14:14:05.854Z,97799.69
2022-11-16T14:16:47.726Z,97785.31
2022-11-16T14:19:49.204Z,97777.50
2022-11-16T14:22:45.617Z,97767.91
2022-11-16T14:25:24.179Z,97769.63
2022-11-16T14:28:16.086Z,97763.06
2022-11-16T14:31:07.943Z,97752.75
2022-11-16T14:33:37.253Z,97763.81
2022-11-16T14:36:07.499Z,97759.25
2022-11-16T14:38:40.680Z,97767.13
2022-11-16T14:41:22.780Z,97759.75
2022-11-16T14:43:53.722Z,97749.56
2022-11-16T14:46:26.595Z,97744.69
2022-11-16T14:48:56.804Z,97749.81
2022-11-16T14:51:30.026Z,97741.41
2022-11-16T14:54:02.640Z,97753.66
2022-11-16T14:56:29.220Z,97751.63
2022-11-16T14:59:00.469Z,97749.69
2022-11-16T15:01:39.617Z,97757.13
2022-11-16T15:04:11.144Z,97759.31
2022-11-16T15:06:53.815Z,97751.66
2022-11-16T15:09:39.317Z,97756.16
2022-11-16T15:12:31.677Z,97759.78
2022-11-16T15:15:03.816Z,97754.22
2022-11-16T15:17:33.428Z,97757.03
2022-11-16T15:20:21.727Z,97753.44
2022-11-16T15:22:51.829Z,97751.38
2022-11-16T15:25:24.305Z,97761.97
2022-11-16T15:27:51.194Z,97754.03
2022-11-16T15:30:23.777Z,97741.06
2022-11-16T15:32:52.052Z,97748.22
2022-11-16T15:35:29.331Z,97747.44
2022-11-16T15:38:26.152Z,97733.75
2022-11-16T15:40:59.122Z,97734.34
2022-11-16T15:43:30.063Z,97725.63
2022-11-16T15:45:58.431Z,97725.63
2022-11-16T15:48:27.021Z,97724.53
2022-11-16T15:51:16.496Z,97729.50
2022-11-16T15:53:49.825Z,97724.84
2022-11-16T15:56:25.295Z,97722.47
2022-11-16T15:58:56.684Z,97724.84
2022-11-16T16:01:24.686Z,97722.47
2022-11-16T16:03:51.213Z,97720.91
2022-11-16T16:06:54.437Z,97719.34
2022-11-16T16:09:25.628Z,97713.28
2022-11-16T16:11:57.614Z,97709.06
2022-11-16T16:14:29.932Z,97708.28
2022-11-16T16:17:00.877Z,97707.50
2022-11-16T16:19:35.705Z,97698.00
2022-11-16T16:22:03.744Z,97699.88
2022-11-16T16:24:41.054Z,97689.56
2022-11-16T16:27:16.093Z,97690.16
2022-11-16T16:29:43.297Z,97680.34
2022-11-16T16:32:34.103Z,97681.72
2022-11-16T16:35:07.240Z,97678.28
2022-11-16T16:37:36.059Z,97679.38
2022-11-16T16:40:02.975Z,97673.59
2022-11-16T16:42:29.572Z,97676.25
2022-11-16T16:44:59.265Z,97667.06
2022-11-16T16:47:25.876Z,97666.25
2022-11-16T16:49:52.463Z,97657.84
2022-11-16T16:52:19.057Z,97654.41
2022-11-16T16:54:45.909Z,97666.38
2022-11-16T16:57:15.123Z,97664.50
2022-11-16T16:59:42.540Z,97661.09
2022-11-16T17:02:11.764Z,97666.97
2022-11-16T17:04:38.282Z,97660.91
2022-11-16T17:07:05.607Z,97659.34
2022-11-16T17:09:33.338Z,97655.13
2022-11-16T17:11:59.834Z,97658.06
2022-11-16T17:14:26.457Z,97658.06
2022-11-16T17:16:52.952Z,97648.25
2022-11-16T17:19:19.999Z,97649.06
2022-11-16T17:21:46.650Z,97649.06
2022-11-16T17:24:13.099Z,97651.72
2022-11-16T17:26:40.882Z,97642.97
2022-11-16T17:29:07.456Z,97639.25
2022-11-16T17:31:33.974Z,97635.84
2022-11-16T17:34:00.627Z,97618.38
2022-11-16T17:36:27.190Z,97628.69
2022-11-16T17:38:53.727Z,97620.25
2022-11-16T17:41:22.374Z,97631.13
2022-11-16T17:43:52.920Z,97624.56
2022-11-16T17:46:21.402Z,97614.59
2022-11-16T17:48:48.926Z,97615.38
2022-11-16T17:51:18.083Z,97607.44
2022-11-16T17:53:44.904Z,97606.66
2022-11-16T17:56:14.260Z,97592.47
2022-11-16T17:58:41.253Z,97598.25
2022-11-16T18:01:08.218Z,97597.94
2022-11-16T18:03:38.510Z,97597.16
2022-11-16T18:06:07.058Z,97592.19
2022-11-16T18:08:34.645Z,97596.38
2022-11-16T18:11:10.450Z,97586.13
2022-11-16T18:13:37.367Z,97578.19
2022-11-16T18:16:10.736Z,97580.00
2022-11-16T18:18:38.488Z,97572.38
2022-11-16T18:21:06.157Z,97573.47
2022-11-16T18:23:34.197Z,97566.63
2022-11-16T18:26:03.098Z,97565.81
2022-11-16T18:28:30.257Z,97564.59
2022-11-16T18:31:09.536Z,97563.31
2022-11-16T18:33:37.924Z,97575.75
2022-11-16T18:36:05.883Z,97559.09
2022-11-16T18:38:32.705Z,97559.56
2022-11-16T18:41:11.089Z,97559.56
2022-11-16T18:43:59.133Z,97555.09
2022-11-16T18:46:28.306Z,97552.44
2022-11-16T18:48:55.839Z,97557.44
2022-11-16T18:51:29.511Z,97550.25
2022-11-16T18:53:56.932Z,97549.19
2022-11-16T18:56:24.157Z,97547.03
2022-11-16T18:58:54.663Z,97541.75
2022-11-16T19:01:24.212Z,97536.44
2022-11-16T19:03:51.919Z,97535.34
2022-11-16T19:06:19.083Z,97530.06
2022-11-16T19:08:52.173Z,97530.06
2022-11-16T19:11:22.627Z,97530.84
2022-11-16T19:13:56.342Z,97536.13
2022-11-16T19:16:23.498Z,97522.13
2022-11-16T19:18:50.103Z,97524.78
2022-11-16T19:21:18.525Z,97524.78
2022-11-16T19:23:47.751Z,97522.91
2022-11-16T19:26:16.075Z,97516.06
2022-11-16T19:28:45.447Z,97515.28
2022-11-16T19:31:16.375Z,97514.19
2022-11-16T19:33:44.563Z,97517.63
2022-11-16T19:36:16.520Z,97507.03
2022-11-16T19:38:43.988Z,97510.47
2022-11-16T19:41:12.824Z,97509.69
2022-11-16T19:43:39.717Z,97506.44
2022-11-16T19:46:11.556Z,97495.84
2022-11-16T19:48:38.325Z,97501.16
2022-11-16T19:51:10.839Z,97499.59
2022-11-16T19:53:38.354Z,97491.03
2022-11-16T19:56:06.875Z,97478.91
2022-11-16T19:58:39.341Z,97482.31
2022-11-16T20:01:20.645Z,97477.81
2022-11-16T20:03:49.181Z,97470.97
2022-11-16T20:06:20.649Z,97464.56
2022-11-16T20:08:50.745Z,97467.72
2022-11-16T20:11:27.930Z,97467.72
2022-11-16T20:13:56.780Z,97461.66
2022-11-16T20:16:25.337Z,97447.66
2022-11-16T20:18:52.697Z,97453.41
2022-11-16T20:21:26.961Z,97441.25
2022-11-16T20:23:53.805Z,97445.47
2022-11-16T20:26:21.653Z,97440.16
2022-11-16T20:28:53.327Z,97445.47
2022-11-16T20:31:22.223Z,97433.31
2022-11-16T20:33:53.952Z,97434.88
2022-11-16T20:36:22.748Z,97434.59
2022-11-16T20:38:50.114Z,97444.41
2022-11-16T20:41:19.466Z,97433.00
2022-11-16T20:43:47.256Z,97429.31
2022-11-16T20:46:15.742Z,97424.00
2022-11-16T20:48:43.384Z,97428.97
2022-11-16T20:51:12.692Z,97423.69
2022-11-16T20:53:39.523Z,97421.03
2022-11-16T20:56:07.728Z,97414.97
2022-11-16T20:58:34.760Z,97416.84
2022-11-16T21:01:06.423Z,97407.81
2022-11-16T21:03:33.704Z,97408.59
2022-11-16T21:06:01.182Z,97409.38
2022-11-16T21:08:29.792Z,97401.44
2022-11-16T21:10:56.555Z,97413.59
2022-11-16T21:13:42.443Z,97407.22
2022-11-16T21:16:11.904Z,97400.84
2022-11-16T21:18:39.570Z,97402.69
2022-11-16T21:21:12.441Z,97403.78
2022-11-16T21:23:41.071Z,97405.34
2022-11-16T21:26:11.501Z,97397.72
2022-11-16T21:28:38.584Z,97396.91
2022-11-16T21:31:08.020Z,97393.22
2022-11-16T21:33:34.717Z,97386.81
2022-11-16T21:36:21.495Z,97386.06
2022-11-16T21:38:48.730Z,97372.50
2022-11-16T21:41:16.652Z,97378.88
2022-11-16T21:43:44.165Z,97369.41
2022-11-16T21:46:19.047Z,97370.94
2022-11-16T21:48:47.887Z,97366.44
2022-11-16T21:51:17.055Z,97359.59
2022-11-16T21:53:44.108Z,97361.91
2022-11-16T21:56:19.643Z,97357.41
2022-11-16T21:58:46.888Z,97344.94
2022-11-16T22:01:16.013Z,97347.59
2022-11-16T22:03:42.986Z,97339.38
2022-11-16T22:06:32.147Z,97336.41
2022-11-16T22:08:58.918Z,97337.19
2022-11-16T22:11:25.576Z,97340.94
2022-11-16T22:13:52.160Z,97339.06
2022-11-16T22:16:20.259Z,97338.75
2022-11-16T22:18:46.839Z,97345.59
2022-11-16T22:21:13.725Z,97335.47
2022-11-16T22:23:40.828Z,97336.28
2022-11-16T22:26:10.486Z,97334.41
2022-11-16T22:28:38.028Z,97341.56
2022-11-16T22:31:07.242Z,97326.00
2022-11-16T22:33:35.007Z,97329.91
2022-11-16T22:36:02.192Z,97331.44
2022-11-16T22:38:28.971Z,97326.63
2022-11-16T22:40:56.467Z,97326.16
2022-11-16T22:43:28.581Z,97328.03
2022-11-16T22:46:02.939Z,97325.53
2022-11-16T22:48:34.075Z,97321.34
2022-11-16T22:51:22.810Z,97330.34
2022-11-16T22:53:54.344Z,97324.78
2022-11-16T22:56:21.284Z,97317.91
2022-11-16T22:58:47.827Z,97307.03
2022-11-16T23:01:14.384Z,97306.25
2022-11-16T23:03:41.134Z,97299.38
2022-11-16T23:06:07.992Z,97301.72
2022-11-16T23:08:35.716Z,97300.94
2022-11-16T23:11:22.929Z,97299.84
2022-11-16T23:14:08.833Z,97295.66
2022-11-16T23:16:35.805Z,97289.28
2022-11-16T23:19:02.895Z,97285.53
2022-11-16T23:21:47.687Z,97276.81
2022-11-16T23:24:33.973Z,97276.81
2022-11-16T23:27:22.362Z,97281.00
2022-11-16T23:29:49.193Z,97273.41
2022-11-16T23:32:15.795Z,97267.78
2022-11-16T23:34:42.525Z,97261.72
2022-11-16T23:37:09.129Z,97258.28
2022-11-16T23:39:35.654Z,97255.31
2022-11-16T23:42:20.455Z,97251.63
2022-11-16T23:44:47.017Z,97250.84
2022-11-16T23:47:13.686Z,97241.03
2022-11-16T23:49:40.271Z,97237.59
2022-11-16T23:52:07.304Z,97224.38
2022-11-16T23:54:33.828Z,97228.09
2022-11-16T23:57:00.395Z,97228.56
2022-11-16T23:59:27.215Z,97220.63
